Pagrindinis puslapis
METAR-TAF:

METAR-TAF

Oro uostai :

Bender Abasas, Iranas

platuma: 27-13N, ilguma: 056-22E, Aukštis: 10 m

Dabartinis oras

Ataskaita buvo paskelbta 41 minutes, ne 03:30 UTC
Vėjas 6 kt iš Šiaurės Rytų
Temperatūra 15°C
Drėgmė 51%
Slėgis 1016 hPa
Matomumas 10 km arba daugiau
nėra debesų žemiau 1500 m ir nėra kamuolinių lietaus debesų

METAR: OIKB 130330Z 05006KT CAVOK 15/05 Q1016 A3001

Laikas: 07:41 (04:11 UTC)

Prognozė

Ataskaita buvo paskelbta 5 valandos ir 11 minutes, ne 23:00 UTC
Prognozė galioja nuo 13 metu 00 UTC su 14 metu 06 UTC
Vėjas 8 kt iš Šiaurės
Matomumas: 9000 m

TAF: OIKB 122300Z 1300/1406 36008KT 9000 NSC

Orai ataskaitas ir orų prognozės (METAR, TAF).

turimą stotys yra geltonos ir raudonos taškus žemėlapyje.

Perkelti pele per norėdami pamatyti stoties vardą.

Tada spustelėkite, norėdami matyti oro stebėjimo ir prognozės.

Norėdami pakeisti žemėlapį: spustelėkite ant žalios mygtukų su juodo kryžiaus žemyn,; žalią mygtuką su brūkšneliu, jei norite nutolinti; arba žalių rodyklių gretimoms žemėlapius.


METAR-TAF: